Indian Lake, Indiana
Current Conditions -  °F | °C
As of 7:15 AM on Sunday 28 Dec 2014 (Local Time) from KGWB Reporting Station
Overcast Overcast  
Wind Chill: 27°   Ceiling: 2000
Heat Index: 34°   Visibility: 10mi
Dew Point: 28°   Wind: 8mph
Humidity: 81%   Direction: 280°W
Pressure: 30.1"   Gusts: NA
Location:  41.4621°N, 85.1517°W
Report Text: KGWB 281215Z AUTO 28007KT 10SM OVC020 01/M02 A3010 RMK AO2
Loading
Personal Weather Stations






























Interactive Weather Map New forecast layout! Learn more

10-Day Weather Forecast

Advertisements
Track Severe Weather on mobile